createdAt,value
2018-11-07T00:00:19.816Z,0.00
2018-11-07T00:01:20.237Z,0.00
2018-11-07T00:03:12.275Z,0.00
2018-11-07T00:04:12.262Z,0.00
2018-11-07T00:06:06.016Z,0.00
2018-11-07T00:07:05.931Z,0.00
2018-11-07T00:08:59.402Z,0.00
2018-11-07T00:10:00.806Z,0.00
2018-11-07T00:11:53.415Z,0.00
2018-11-07T00:12:52.379Z,0.00
2018-11-07T00:14:46.150Z,0.00
2018-11-07T00:15:46.162Z,0.00
2018-11-07T00:17:38.949Z,0.00
2018-11-07T00:18:38.965Z,0.00
2018-11-07T00:20:32.093Z,0.00
2018-11-07T00:21:32.032Z,0.00
2018-11-07T00:23:25.183Z,0.00
2018-11-07T00:24:25.422Z,0.00
2018-11-07T00:26:18.339Z,0.00
2018-11-07T00:27:18.237Z,0.00
2018-11-07T00:29:12.206Z,0.00
2018-11-07T00:30:12.209Z,0.00
2018-11-07T00:32:05.886Z,0.00
2018-11-07T00:33:05.866Z,0.00
2018-11-07T00:34:58.804Z,0.00
2018-11-07T00:35:58.398Z,0.00
2018-11-07T00:37:52.061Z,0.00
2018-11-07T00:38:52.257Z,0.00
2018-11-07T00:40:44.988Z,0.00
2018-11-07T00:41:44.928Z,0.00
2018-11-07T00:43:38.341Z,0.00
2018-11-07T00:44:37.946Z,0.00
2018-11-07T00:46:31.773Z,0.00
2018-11-07T00:47:31.302Z,0.00
2018-11-07T00:49:24.995Z,0.00
2018-11-07T00:50:24.677Z,0.00
2018-11-07T00:52:18.454Z,0.00
2018-11-07T00:53:18.374Z,0.00
2018-11-07T00:55:12.722Z,0.00
2018-11-07T00:56:12.683Z,0.00
2018-11-07T00:58:06.274Z,0.00
2018-11-07T00:59:06.371Z,0.00
2018-11-07T01:00:59.426Z,0.00
2018-11-07T01:01:59.114Z,0.00
2018-11-07T01:03:52.278Z,0.00
2018-11-07T01:04:51.968Z,0.00
2018-11-07T01:06:46.159Z,0.00
2018-11-07T01:07:44.826Z,0.00
2018-11-07T01:09:39.023Z,0.00
2018-11-07T01:10:38.429Z,0.00
2018-11-07T01:12:31.930Z,0.00
2018-11-07T01:13:31.913Z,0.00
2018-11-07T01:15:24.772Z,0.00
2018-11-07T01:16:24.766Z,0.00
2018-11-07T01:18:18.121Z,0.00
2018-11-07T01:19:18.128Z,0.00
2018-11-07T01:21:12.905Z,0.00
2018-11-07T01:22:12.222Z,0.00
2018-11-07T01:24:05.903Z,0.00
2018-11-07T01:25:05.880Z,0.00
2018-11-07T01:26:59.242Z,0.00
2018-11-07T01:27:58.881Z,0.00
2018-11-07T01:29:53.173Z,0.00
2018-11-07T01:30:52.381Z,0.00
2018-11-07T01:32:49.195Z,0.00
2018-11-07T01:33:46.623Z,0.00
2018-11-07T01:35:40.432Z,0.00
2018-11-07T01:36:40.332Z,0.00
2018-11-07T01:38:33.144Z,0.00
2018-11-07T01:39:32.873Z,0.00
2018-11-07T01:41:26.647Z,0.00
2018-11-07T01:42:26.200Z,0.00
2018-11-07T01:44:19.939Z,0.00
2018-11-07T01:45:19.893Z,0.00
2018-11-07T01:47:13.242Z,0.00
2018-11-07T01:48:12.925Z,0.00
2018-11-07T01:50:06.190Z,0.00
2018-11-07T01:51:05.801Z,0.00
2018-11-07T01:52:59.462Z,0.00
2018-11-07T01:53:59.152Z,0.00
2018-11-07T01:55:52.520Z,0.00
2018-11-07T01:56:52.521Z,0.00
2018-11-07T01:58:46.297Z,0.00
2018-11-07T01:59:46.286Z,0.00
2018-11-07T02:01:39.678Z,0.00
2018-11-07T02:02:39.622Z,0.00
2018-11-07T02:04:32.978Z,0.00
2018-11-07T02:05:32.977Z,0.00
2018-11-07T02:07:25.837Z,0.00
2018-11-07T02:08:25.480Z,0.00
2018-11-07T02:10:19.262Z,0.00
2018-11-07T02:11:18.906Z,0.00
2018-11-07T02:13:12.241Z,0.00
2018-11-07T02:14:12.214Z,0.00
2018-11-07T02:16:05.974Z,0.00
2018-11-07T02:17:05.631Z,0.00
2018-11-07T02:18:58.481Z,0.00
2018-11-07T02:19:58.441Z,0.00
2018-11-07T02:21:51.846Z,0.00
2018-11-07T02:22:52.051Z,0.00
2018-11-07T02:24:45.246Z,0.00
2018-11-07T02:25:45.149Z,0.00
2018-11-07T02:27:38.565Z,0.00
2018-11-07T02:28:38.502Z,0.00
2018-11-07T02:30:31.904Z,0.00
2018-11-07T02:31:31.872Z,0.00
2018-11-07T02:33:25.815Z,0.00
2018-11-07T02:34:25.255Z,0.00
2018-11-07T02:36:19.640Z,0.00
2018-11-07T02:37:19.227Z,0.00
2018-11-07T02:39:12.214Z,0.00
2018-11-07T02:40:12.116Z,0.00
2018-11-07T02:42:05.407Z,0.00
2018-11-07T02:43:05.037Z,0.00
2018-11-07T02:44:58.577Z,0.00
2018-11-07T02:45:58.204Z,0.00
2018-11-07T02:47:51.691Z,0.00
2018-11-07T02:48:52.118Z,0.00
2018-11-07T02:50:45.319Z,0.00
2018-11-07T02:51:45.175Z,0.00
2018-11-07T02:53:38.673Z,0.00
2018-11-07T02:54:38.649Z,0.00
2018-11-07T02:56:31.691Z,0.00
2018-11-07T02:57:31.638Z,0.00
2018-11-07T02:59:25.563Z,0.00
2018-11-07T03:00:24.971Z,0.00
2018-11-07T03:02:18.395Z,0.00
2018-11-07T03:03:18.345Z,0.00
2018-11-07T03:05:11.868Z,0.00
2018-11-07T03:06:11.489Z,0.00
2018-11-07T03:08:04.737Z,0.00
2018-11-07T03:09:04.701Z,0.00
2018-11-07T03:10:57.585Z,0.00
2018-11-07T03:11:57.204Z,0.00
2018-11-07T03:13:50.891Z,0.00
2018-11-07T03:14:50.550Z,0.00
2018-11-07T03:16:44.265Z,0.00
2018-11-07T03:17:44.211Z,0.00
2018-11-07T03:19:37.847Z,0.00
2018-11-07T03:20:37.843Z,0.00
2018-11-07T03:22:31.102Z,0.00
2018-11-07T03:23:30.657Z,0.00
2018-11-07T03:25:25.087Z,0.00
2018-11-07T03:26:23.995Z,0.00
2018-11-07T03:28:17.710Z,0.00
2018-11-07T03:29:17.684Z,0.00
2018-11-07T03:31:11.090Z,0.00
2018-11-07T03:32:11.140Z,0.00
2018-11-07T03:34:04.166Z,0.00
2018-11-07T03:35:04.033Z,0.00
2018-11-07T03:36:57.367Z,0.00
2018-11-07T03:37:56.907Z,0.00
2018-11-07T03:39:50.610Z,0.00
2018-11-07T03:40:50.636Z,0.00
2018-11-07T03:42:43.640Z,0.00
2018-11-07T03:43:43.635Z,0.00
2018-11-07T03:45:37.722Z,0.00
2018-11-07T03:46:37.372Z,0.00
2018-11-07T03:48:30.791Z,0.00
2018-11-07T03:49:30.349Z,0.00
2018-11-07T03:51:25.132Z,0.00
2018-11-07T03:52:25.013Z,0.00
2018-11-07T03:54:18.431Z,0.00
2018-11-07T03:55:18.056Z,0.00
2018-11-07T03:57:11.446Z,0.00
2018-11-07T03:58:11.284Z,0.00
2018-11-07T04:00:04.349Z,0.00
2018-11-07T04:01:04.308Z,0.00
2018-11-07T04:02:58.158Z,0.00
2018-11-07T04:03:58.032Z,0.00
2018-11-07T04:05:51.170Z,0.00
2018-11-07T04:06:51.122Z,0.00
2018-11-07T04:08:45.600Z,0.00
2018-11-07T04:09:44.267Z,0.00
2018-11-07T04:11:37.860Z,0.00
2018-11-07T04:12:37.545Z,0.00
2018-11-07T04:14:31.256Z,0.00
2018-11-07T04:15:30.878Z,0.00
2018-11-07T04:17:25.169Z,0.00
2018-11-07T04:18:25.143Z,0.00
2018-11-07T04:20:18.635Z,0.00
2018-11-07T04:21:18.508Z,0.00
2018-11-07T04:23:11.691Z,0.00
2018-11-07T04:24:11.888Z,0.00
2018-11-07T04:26:04.916Z,0.00
2018-11-07T04:27:04.528Z,0.00
2018-11-07T04:28:58.246Z,0.00
2018-11-07T04:29:57.849Z,0.00
2018-11-07T04:31:51.185Z,0.00
2018-11-07T04:32:50.730Z,0.00
2018-11-07T04:34:44.617Z,0.00
2018-11-07T04:35:44.607Z,0.00
2018-11-07T04:37:37.608Z,0.00
2018-11-07T04:38:38.008Z,0.00
2018-11-07T04:40:31.279Z,0.00
2018-11-07T04:41:30.946Z,0.00
2018-11-07T04:43:24.584Z,0.00
2018-11-07T04:44:24.495Z,0.00
2018-11-07T04:46:17.537Z,0.00
2018-11-07T04:47:17.403Z,0.00
2018-11-07T04:49:10.019Z,0.00
2018-11-07T04:50:09.898Z,0.00
2018-11-07T04:52:03.359Z,0.00
2018-11-07T04:53:03.297Z,0.00
2018-11-07T04:54:57.237Z,0.00
2018-11-07T04:55:56.628Z,0.00
2018-11-07T04:57:50.691Z,0.00
2018-11-07T04:58:50.534Z,0.00
2018-11-07T05:00:43.789Z,0.00
2018-11-07T05:01:43.463Z,0.00
2018-11-07T05:03:37.139Z,0.00
2018-11-07T05:04:36.741Z,0.00
2018-11-07T05:06:30.221Z,0.00
2018-11-07T05:07:29.903Z,0.00
2018-11-07T05:09:23.051Z,0.00
2018-11-07T05:10:22.889Z,0.00
2018-11-07T05:12:17.168Z,0.00
2018-11-07T05:13:17.106Z,0.00
2018-11-07T05:15:10.842Z,0.00
2018-11-07T05:16:10.779Z,0.00
2018-11-07T05:18:03.910Z,0.00
2018-11-07T05:19:03.836Z,0.00
2018-11-07T05:20:57.427Z,0.00
2018-11-07T05:21:57.172Z,0.00
2018-11-07T05:23:50.635Z,0.00
2018-11-07T05:24:50.544Z,0.00
2018-11-07T05:26:44.008Z,0.00
2018-11-07T05:27:43.896Z,0.00
2018-11-07T05:29:36.889Z,0.00
2018-11-07T05:30:36.776Z,0.00
2018-11-07T05:32:30.932Z,0.00
2018-11-07T05:33:30.103Z,0.00
2018-11-07T05:35:23.169Z,0.00
2018-11-07T05:36:23.064Z,0.00
2018-11-07T05:38:16.482Z,0.00
2018-11-07T05:39:16.420Z,0.00
2018-11-07T05:41:10.196Z,0.00
2018-11-07T05:42:09.813Z,0.00
2018-11-07T05:44:02.680Z,0.00
2018-11-07T05:45:02.664Z,0.00
2018-11-07T05:46:56.037Z,0.00
2018-11-07T05:47:55.997Z,0.00
2018-11-07T05:49:49.611Z,0.00
2018-11-07T05:50:49.344Z,0.00
2018-11-07T05:52:42.484Z,0.00
2018-11-07T05:53:42.300Z,0.00
2018-11-07T05:55:35.856Z,0.00
2018-11-07T05:56:35.595Z,0.00
2018-11-07T05:58:28.458Z,0.00
2018-11-07T05:59:28.431Z,0.00
2018-11-07T06:01:22.133Z,0.00
2018-11-07T06:02:21.776Z,0.00
2018-11-07T06:04:15.210Z,0.00
2018-11-07T06:05:15.158Z,0.00
2018-11-07T06:07:08.858Z,4.00
2018-11-07T06:08:08.855Z,4.00
2018-11-07T06:10:01.980Z,4.00
2018-11-07T06:11:01.884Z,4.00
2018-11-07T06:12:54.801Z,4.00
2018-11-07T06:13:54.740Z,8.00
2018-11-07T06:15:49.176Z,12.00
2018-11-07T06:16:47.833Z,12.00
2018-11-07T06:18:41.844Z,12.00
2018-11-07T06:19:41.516Z,16.00
2018-11-07T06:21:34.483Z,20.00
2018-11-07T06:22:34.447Z,24.00
2018-11-07T06:24:28.348Z,28.00
2018-11-07T06:25:27.805Z,32.00
2018-11-07T06:27:21.605Z,40.00
2018-11-07T06:28:21.167Z,48.00
2018-11-07T06:30:14.590Z,56.00
2018-11-07T06:31:14.529Z,60.00
2018-11-07T06:33:08.534Z,76.00
2018-11-07T06:34:08.477Z,80.00
2018-11-07T06:36:02.399Z,96.00
2018-11-07T06:37:01.954Z,100.00
2018-11-07T06:38:55.370Z,120.00
2018-11-07T06:39:54.737Z,128.00
2018-11-07T06:41:48.094Z,144.00
2018-11-07T06:42:48.073Z,152.00
2018-11-07T06:44:41.760Z,168.00
2018-11-07T06:45:41.435Z,180.00
2018-11-07T06:47:36.062Z,192.00
2018-11-07T06:48:34.763Z,200.00
2018-11-07T06:50:28.241Z,220.00
2018-11-07T06:51:28.115Z,228.00
2018-11-07T06:53:21.047Z,248.00
2018-11-07T06:54:21.311Z,264.00
2018-11-07T06:56:14.401Z,284.00
2018-11-07T06:57:14.399Z,296.00
2018-11-07T06:59:07.267Z,324.00
2018-11-07T07:00:07.246Z,336.00
2018-11-07T07:02:00.481Z,356.00
2018-11-07T07:03:00.106Z,364.00
2018-11-07T07:04:53.525Z,384.00
2018-11-07T07:05:53.474Z,392.00
2018-11-07T07:07:46.860Z,412.00
2018-11-07T07:08:46.840Z,424.00
2018-11-07T07:10:40.228Z,440.00
2018-11-07T07:11:40.183Z,452.00
2018-11-07T07:13:34.070Z,476.00
2018-11-07T07:14:33.542Z,488.00
2018-11-07T07:16:27.147Z,504.00
2018-11-07T07:17:26.952Z,520.00
2018-11-07T07:19:20.086Z,540.00
2018-11-07T07:20:20.063Z,556.00
2018-11-07T07:22:13.439Z,572.00
2018-11-07T07:23:13.404Z,576.00
2018-11-07T07:25:06.836Z,596.00
2018-11-07T07:26:06.746Z,604.00
2018-11-07T07:28:00.487Z,620.00
2018-11-07T07:29:00.152Z,636.00
2018-11-07T07:30:53.568Z,672.00
2018-11-07T07:31:54.053Z,696.00
2018-11-07T07:33:46.469Z,736.00
2018-11-07T07:34:46.374Z,748.00
2018-11-07T07:36:39.777Z,768.00
2018-11-07T07:37:39.705Z,764.00
2018-11-07T07:39:33.340Z,748.00
2018-11-07T07:40:33.049Z,744.00
2018-11-07T07:42:25.935Z,736.00
2018-11-07T07:43:25.961Z,728.00
2018-11-07T07:45:19.557Z,732.00
2018-11-07T07:46:19.282Z,736.00
2018-11-07T07:48:12.729Z,744.00
2018-11-07T07:49:12.743Z,748.00
2018-11-07T07:51:06.281Z,760.00
2018-11-07T07:52:06.048Z,760.00
2018-11-07T07:53:59.821Z,768.00
2018-11-07T07:54:59.984Z,772.00
2018-11-07T07:56:54.447Z,784.00
2018-11-07T07:57:53.417Z,788.00
2018-11-07T07:59:46.253Z,796.00
2018-11-07T08:00:46.207Z,800.00
2018-11-07T08:02:40.618Z,804.00
2018-11-07T08:03:39.554Z,812.00
2018-11-07T08:05:32.510Z,816.00
2018-11-07T08:06:32.431Z,820.00
2018-11-07T08:08:25.836Z,828.00
2018-11-07T08:09:25.781Z,828.00
2018-11-07T08:11:19.261Z,836.00
2018-11-07T08:12:19.190Z,836.00
2018-11-07T08:14:12.596Z,840.00
2018-11-07T08:15:12.583Z,844.00
2018-11-07T08:17:06.105Z,848.00
2018-11-07T08:18:05.967Z,852.00
2018-11-07T08:19:59.458Z,856.00
2018-11-07T08:20:59.293Z,856.00
2018-11-07T08:22:52.717Z,860.00
2018-11-07T08:23:52.638Z,868.00
2018-11-07T08:25:46.240Z,872.00
2018-11-07T08:26:46.073Z,872.00
2018-11-07T08:28:39.111Z,876.00
2018-11-07T08:29:38.911Z,880.00
2018-11-07T08:31:32.269Z,884.00
2018-11-07T08:32:32.211Z,888.00
2018-11-07T08:34:25.347Z,896.00
2018-11-07T08:35:25.099Z,896.00
2018-11-07T08:37:18.006Z,904.00
2018-11-07T08:38:17.977Z,904.00
2018-11-07T08:40:11.358Z,908.00
2018-11-07T08:41:11.311Z,908.00
2018-11-07T08:43:04.826Z,916.00
2018-11-07T08:44:04.676Z,920.00
2018-11-07T08:45:58.161Z,916.00
2018-11-07T08:46:58.067Z,920.00
2018-11-07T08:48:51.504Z,928.00
2018-11-07T08:49:50.949Z,928.00
2018-11-07T08:51:44.367Z,932.00
2018-11-07T08:52:44.306Z,932.00
2018-11-07T08:54:37.625Z,944.00
2018-11-07T08:55:37.201Z,944.00
2018-11-07T08:57:30.679Z,952.00
2018-11-07T08:58:30.501Z,952.00
2018-11-07T09:00:24.664Z,960.00
2018-11-07T09:01:24.025Z,956.00
2018-11-07T09:03:16.753Z,968.00
2018-11-07T09:04:16.749Z,968.00
2018-11-07T09:06:09.662Z,972.00
2018-11-07T09:07:09.656Z,976.00
2018-11-07T09:09:02.484Z,976.00
2018-11-07T09:10:02.732Z,980.00
2018-11-07T09:11:55.892Z,984.00
2018-11-07T09:12:55.846Z,988.00
2018-11-07T09:14:48.767Z,996.00
2018-11-07T09:15:48.703Z,996.00
2018-11-07T09:17:41.713Z,1000.00
2018-11-07T09:18:42.629Z,1004.00
2018-11-07T09:20:34.559Z,1004.00
2018-11-07T09:21:34.499Z,1012.00
2018-11-07T09:23:28.137Z,1012.00
2018-11-07T09:24:27.903Z,1012.00
2018-11-07T09:26:20.793Z,1020.00
2018-11-07T09:27:20.755Z,1020.00
2018-11-07T09:29:14.248Z,1024.00
2018-11-07T09:30:13.876Z,1032.00
2018-11-07T09:32:06.931Z,1036.00
2018-11-07T09:33:06.726Z,1036.00
2018-11-07T09:34:59.628Z,1044.00
2018-11-07T09:35:59.604Z,1048.00
2018-11-07T09:37:52.553Z,1060.00
2018-11-07T09:38:52.461Z,1064.00
2018-11-07T09:40:45.965Z,1068.00
2018-11-07T09:41:45.339Z,1072.00
2018-11-07T09:43:38.743Z,1100.00
2018-11-07T09:44:38.721Z,1108.00
2018-11-07T09:46:31.622Z,1132.00
2018-11-07T09:47:31.641Z,1140.00
2018-11-07T09:49:25.094Z,1188.00
2018-11-07T09:50:25.512Z,1232.00
2018-11-07T09:52:18.379Z,1408.00
2018-11-07T09:53:18.329Z,1516.00
2018-11-07T09:55:11.248Z,1668.00
2018-11-07T09:56:11.230Z,1712.00
2018-11-07T09:58:04.127Z,1612.00
2018-11-07T09:59:04.090Z,1560.00
2018-11-07T10:00:57.462Z,1468.00
2018-11-07T10:01:57.449Z,1380.00
2018-11-07T10:03:50.841Z,1312.00
2018-11-07T10:04:50.821Z,1236.00
2018-11-07T10:06:43.744Z,1248.00
2018-11-07T10:07:43.674Z,1260.00
2018-11-07T10:09:36.631Z,1300.00
2018-11-07T10:10:36.744Z,1276.00
2018-11-07T10:12:29.844Z,1240.00
2018-11-07T10:13:29.381Z,1220.00
2018-11-07T10:15:22.322Z,1184.00
2018-11-07T10:16:22.831Z,1164.00
2018-11-07T10:18:16.023Z,1144.00
2018-11-07T10:19:15.623Z,1140.00
2018-11-07T10:21:08.864Z,1148.00
2018-11-07T10:22:08.499Z,1148.00
2018-11-07T10:24:01.934Z,1164.00
2018-11-07T10:25:01.641Z,1160.00
2018-11-07T10:26:55.164Z,1160.00
2018-11-07T10:27:55.648Z,1092.00
2018-11-07T10:29:49.706Z,1096.00
2018-11-07T10:30:49.380Z,1104.00
2018-11-07T10:32:43.110Z,1128.00
2018-11-07T10:33:42.749Z,1128.00
2018-11-07T10:35:36.462Z,1164.00
2018-11-07T10:36:36.102Z,1224.00
2018-11-07T10:38:29.439Z,1328.00
2018-11-07T10:39:29.104Z,1352.00
2018-11-07T10:41:22.556Z,1324.00
2018-11-07T10:42:22.490Z,1312.00
2018-11-07T10:44:16.157Z,1256.00
2018-11-07T10:45:15.825Z,1240.00
2018-11-07T10:47:08.929Z,1216.00
2018-11-07T10:48:09.389Z,1196.00
2018-11-07T10:50:02.397Z,1180.00
2018-11-07T10:51:02.074Z,1184.00
2018-11-07T10:52:55.721Z,1212.00
2018-11-07T10:53:55.430Z,1248.00
2018-11-07T10:55:49.130Z,1316.00
2018-11-07T10:56:48.802Z,1332.00
2018-11-07T10:58:42.466Z,1344.00
2018-11-07T10:59:42.229Z,1328.00
2018-11-07T11:01:35.551Z,1300.00
2018-11-07T11:02:35.526Z,1272.00
2018-11-07T11:04:28.979Z,1212.00
2018-11-07T11:05:28.907Z,1200.00
2018-11-07T11:07:22.284Z,1156.00
2018-11-07T11:08:22.257Z,1136.00
2018-11-07T11:10:15.829Z,1120.00
2018-11-07T11:11:15.658Z,1120.00
2018-11-07T11:13:09.297Z,1160.00
2018-11-07T11:14:08.993Z,1112.00
2018-11-07T11:16:03.048Z,1064.00
2018-11-07T11:17:02.547Z,1072.00
2018-11-07T11:18:55.314Z,1060.00
2018-11-07T11:19:55.264Z,1044.00
2018-11-07T11:21:48.973Z,1040.00
2018-11-07T11:22:48.609Z,1036.00
2018-11-07T11:24:42.137Z,892.00
2018-11-07T11:25:42.595Z,896.00
2018-11-07T11:27:35.184Z,912.00
2018-11-07T11:28:34.849Z,952.00
2018-11-07T11:30:28.310Z,964.00
2018-11-07T11:31:28.231Z,932.00
2018-11-07T11:33:21.148Z,928.00
2018-11-07T11:34:21.124Z,892.00
2018-11-07T11:36:14.717Z,892.00
2018-11-07T11:37:14.440Z,920.00
2018-11-07T11:39:07.864Z,1020.00
2018-11-07T11:40:07.822Z,1072.00
2018-11-07T11:42:01.469Z,1136.00
2018-11-07T11:43:01.172Z,1124.00
2018-11-07T11:44:54.790Z,996.00
2018-11-07T11:45:54.513Z,1024.00
2018-11-07T11:47:48.172Z,1220.00
2018-11-07T11:48:47.902Z,1312.00
2018-11-07T11:50:41.133Z,1376.00
2018-11-07T11:51:40.818Z,1376.00
2018-11-07T11:53:33.962Z,1432.00
2018-11-07T11:54:33.672Z,1528.00
2018-11-07T11:56:27.419Z,1780.00
2018-11-07T11:57:27.046Z,1792.00
2018-11-07T11:59:20.654Z,1712.00
2018-11-07T12:00:20.419Z,1736.00
2018-11-07T12:02:13.581Z,1676.00
2018-11-07T12:03:13.512Z,1536.00
2018-11-07T12:05:06.430Z,1380.00
2018-11-07T12:06:06.373Z,1300.00
2018-11-07T12:07:59.559Z,1312.00
2018-11-07T12:08:59.378Z,1240.00
2018-11-07T12:10:52.734Z,1152.00
2018-11-07T12:11:52.122Z,1124.00
2018-11-07T12:13:45.762Z,1176.00
2018-11-07T12:14:45.478Z,1212.00
2018-11-07T12:16:39.728Z,1240.00
2018-11-07T12:17:39.456Z,1304.00
2018-11-07T12:19:33.582Z,1436.00
2018-11-07T12:20:32.826Z,1516.00
2018-11-07T12:22:26.250Z,1468.00
2018-11-07T12:23:26.140Z,1444.00
2018-11-07T12:25:19.547Z,1388.00
2018-11-07T12:26:19.514Z,1364.00
2018-11-07T12:28:12.696Z,1508.00
2018-11-07T12:29:12.442Z,1476.00
2018-11-07T12:31:06.033Z,1544.00
2018-11-07T12:32:05.741Z,1696.00
2018-11-07T12:33:58.918Z,1704.00
2018-11-07T12:34:58.694Z,1576.00
2018-11-07T12:36:52.023Z,1420.00
2018-11-07T12:37:52.004Z,1424.00
2018-11-07T12:39:45.638Z,1720.00
2018-11-07T12:40:45.435Z,1984.00
2018-11-07T12:42:39.257Z,2356.00
2018-11-07T12:43:38.231Z,2400.00
2018-11-07T12:45:31.179Z,2196.00
2018-11-07T12:46:31.155Z,1932.00
2018-11-07T12:48:24.508Z,1708.00
2018-11-07T12:49:24.469Z,1788.00
2018-11-07T12:51:18.185Z,2088.00
2018-11-07T12:52:17.827Z,2112.00
2018-11-07T12:54:11.054Z,2096.00
2018-11-07T12:55:10.736Z,2112.00
2018-11-07T12:57:05.576Z,2224.00
2018-11-07T12:58:05.199Z,2280.00
2018-11-07T12:59:58.845Z,2348.00
2018-11-07T13:00:57.964Z,2432.00
2018-11-07T13:02:51.187Z,2572.00
2018-11-07T13:03:51.098Z,2592.00
2018-11-07T13:05:45.052Z,2560.00
2018-11-07T13:06:45.048Z,2496.00
2018-11-07T13:08:38.696Z,2456.00
2018-11-07T13:09:38.402Z,2408.00
2018-11-07T13:11:31.910Z,2212.00
2018-11-07T13:12:32.030Z,2116.00
2018-11-07T13:14:25.003Z,2020.00
2018-11-07T13:15:24.694Z,1988.00
2018-11-07T13:17:17.624Z,1860.00
2018-11-07T13:18:17.537Z,1824.00
2018-11-07T13:20:10.395Z,1820.00
2018-11-07T13:21:10.429Z,1860.00
2018-11-07T13:23:04.613Z,1972.00
2018-11-07T13:24:03.789Z,2020.00
2018-11-07T13:25:56.915Z,1988.00
2018-11-07T13:26:56.893Z,1936.00
2018-11-07T13:28:50.094Z,1816.00
2018-11-07T13:29:49.849Z,1776.00
2018-11-07T13:31:43.210Z,1736.00
2018-11-07T13:32:43.174Z,1716.00
2018-11-07T13:34:37.632Z,1616.00
2018-11-07T13:35:36.520Z,1552.00
2018-11-07T13:37:29.842Z,1452.00
2018-11-07T13:38:29.709Z,1416.00
2018-11-07T13:40:22.368Z,1300.00
2018-11-07T13:41:22.277Z,1248.00
2018-11-07T13:43:15.522Z,1192.00
2018-11-07T13:44:15.135Z,1148.00
2018-11-07T13:46:08.747Z,1100.00
2018-11-07T13:47:08.561Z,1116.00
2018-11-07T13:49:02.663Z,1012.00
2018-11-07T13:50:01.393Z,932.00
2018-11-07T13:51:54.813Z,804.00
2018-11-07T13:52:54.778Z,764.00
2018-11-07T13:54:48.948Z,732.00
2018-11-07T13:55:48.744Z,724.00
2018-11-07T13:57:43.102Z,840.00
2018-11-07T13:58:43.059Z,896.00
2018-11-07T14:00:36.726Z,964.00
2018-11-07T14:01:36.415Z,992.00
2018-11-07T14:03:29.910Z,1016.00
2018-11-07T14:04:29.807Z,988.00
2018-11-07T14:06:22.954Z,904.00
2018-11-07T14:07:22.679Z,864.00
2018-11-07T14:09:16.073Z,772.00
2018-11-07T14:10:16.041Z,736.00
2018-11-07T14:12:09.253Z,672.00
2018-11-07T14:13:08.902Z,644.00
2018-11-07T14:15:02.433Z,612.00
2018-11-07T14:16:02.401Z,592.00
2018-11-07T14:17:55.519Z,600.00
2018-11-07T14:18:55.159Z,628.00
2018-11-07T14:20:48.796Z,616.00
2018-11-07T14:21:48.516Z,616.00
2018-11-07T14:23:41.421Z,604.00
2018-11-07T14:24:41.419Z,620.00
2018-11-07T14:26:35.096Z,648.00
2018-11-07T14:27:34.778Z,616.00
2018-11-07T14:29:28.260Z,520.00
2018-11-07T14:30:28.134Z,484.00
2018-11-07T14:32:21.878Z,444.00
2018-11-07T14:33:21.542Z,432.00
2018-11-07T14:35:15.153Z,432.00
2018-11-07T14:36:14.908Z,440.00
2018-11-07T14:38:08.258Z,452.00
2018-11-07T14:39:08.239Z,448.00
2018-11-07T14:41:01.948Z,400.00
2018-11-07T14:42:01.624Z,376.00
2018-11-07T14:43:54.803Z,348.00
2018-11-07T14:44:54.480Z,360.00
2018-11-07T14:46:47.678Z,328.00
2018-11-07T14:47:47.442Z,312.00
2018-11-07T14:49:40.794Z,292.00
2018-11-07T14:50:40.731Z,272.00
2018-11-07T14:52:33.863Z,248.00
2018-11-07T14:53:33.652Z,232.00
2018-11-07T14:55:27.325Z,224.00
2018-11-07T14:56:26.955Z,208.00
2018-11-07T14:58:20.328Z,196.00
2018-11-07T14:59:20.322Z,196.00
2018-11-07T15:01:14.023Z,180.00
2018-11-07T15:02:13.708Z,184.00
2018-11-07T15:04:07.154Z,176.00
2018-11-07T15:05:07.074Z,176.00
2018-11-07T15:07:00.741Z,184.00
2018-11-07T15:08:00.421Z,196.00
2018-11-07T15:09:53.860Z,204.00
2018-11-07T15:10:53.789Z,192.00
2018-11-07T15:12:47.618Z,148.00
2018-11-07T15:13:46.679Z,128.00
2018-11-07T15:15:40.090Z,116.00
2018-11-07T15:16:40.060Z,112.00
2018-11-07T15:18:32.931Z,88.00
2018-11-07T15:19:33.169Z,84.00
2018-11-07T15:21:26.326Z,80.00
2018-11-07T15:22:26.251Z,76.00
2018-11-07T15:24:19.681Z,76.00
2018-11-07T15:25:19.671Z,72.00
2018-11-07T15:27:12.641Z,72.00
2018-11-07T15:28:12.578Z,64.00
2018-11-07T15:30:05.991Z,60.00
2018-11-07T15:31:05.962Z,56.00
2018-11-07T15:32:59.323Z,48.00
2018-11-07T15:33:59.311Z,48.00
2018-11-07T15:35:52.756Z,48.00
2018-11-07T15:36:52.676Z,52.00
2018-11-07T15:38:45.636Z,44.00
2018-11-07T15:39:45.621Z,40.00
2018-11-07T15:41:40.012Z,32.00
2018-11-07T15:42:39.973Z,32.00
2018-11-07T15:44:32.849Z,28.00
2018-11-07T15:45:32.841Z,24.00
2018-11-07T15:47:26.809Z,20.00
2018-11-07T15:48:26.202Z,20.00
2018-11-07T15:50:19.727Z,20.00
2018-11-07T15:51:19.624Z,20.00
2018-11-07T15:53:12.686Z,16.00
2018-11-07T15:54:12.431Z,12.00
2018-11-07T15:56:06.380Z,12.00
2018-11-07T15:57:05.335Z,12.00
2018-11-07T15:58:59.239Z,12.00
2018-11-07T15:59:58.955Z,8.00
2018-11-07T16:01:52.275Z,8.00
2018-11-07T16:02:52.147Z,12.00
2018-11-07T16:04:45.784Z,8.00
2018-11-07T16:05:45.442Z,8.00
2018-11-07T16:07:38.831Z,4.00
2018-11-07T16:08:38.825Z,4.00
2018-11-07T16:10:32.539Z,4.00
2018-11-07T16:11:32.267Z,4.00
2018-11-07T16:13:26.046Z,4.00
2018-11-07T16:14:25.661Z,4.00
2018-11-07T16:16:19.177Z,0.00
2018-11-07T16:17:18.981Z,0.00
2018-11-07T16:19:11.927Z,0.00
2018-11-07T16:20:11.839Z,0.00
2018-11-07T16:22:04.997Z,0.00
2018-11-07T16:23:04.827Z,0.00
2018-11-07T16:24:58.369Z,0.00
2018-11-07T16:25:58.178Z,0.00
2018-11-07T16:27:52.009Z,0.00
2018-11-07T16:28:51.160Z,0.00
2018-11-07T16:30:44.723Z,0.00
2018-11-07T16:31:44.496Z,0.00
2018-11-07T16:33:37.609Z,0.00
2018-11-07T16:34:37.333Z,0.00
2018-11-07T16:36:30.715Z,0.00
2018-11-07T16:37:30.948Z,0.00
2018-11-07T16:39:24.245Z,0.00
2018-11-07T16:40:24.039Z,0.00
2018-11-07T16:42:17.400Z,0.00
2018-11-07T16:43:17.399Z,0.00
2018-11-07T16:45:10.802Z,0.00
2018-11-07T16:46:10.759Z,0.00
2018-11-07T16:48:04.399Z,0.00
2018-11-07T16:49:04.118Z,0.00
2018-11-07T16:50:57.878Z,0.00
2018-11-07T16:51:57.469Z,0.00
2018-11-07T16:53:50.995Z,0.00
2018-11-07T16:54:50.933Z,0.00
2018-11-07T16:56:44.540Z,0.00
2018-11-07T16:57:44.274Z,0.00
2018-11-07T16:59:39.160Z,0.00
2018-11-07T17:00:37.863Z,0.00
2018-11-07T17:02:31.510Z,0.00
2018-11-07T17:03:30.946Z,0.00
2018-11-07T17:05:24.196Z,0.00
2018-11-07T17:06:24.366Z,0.00
2018-11-07T17:08:17.388Z,0.00
2018-11-07T17:09:17.201Z,0.00
2018-11-07T17:11:10.549Z,0.00
2018-11-07T17:12:10.530Z,0.00
2018-11-07T17:14:03.938Z,0.00
2018-11-07T17:15:03.875Z,0.00
2018-11-07T17:16:57.384Z,0.00
2018-11-07T17:17:57.256Z,0.00
2018-11-07T17:19:51.027Z,0.00
2018-11-07T17:20:51.550Z,0.00
2018-11-07T17:22:45.219Z,0.00
2018-11-07T17:23:45.025Z,0.00
2018-11-07T17:25:39.938Z,0.00
2018-11-07T17:26:41.956Z,0.00
2018-11-07T17:28:36.007Z,0.00
2018-11-07T17:33:50.678Z,0.00
2018-11-07T17:34:51.137Z,0.00
2018-11-07T17:36:44.244Z,0.00
2018-11-07T17:37:42.703Z,0.00
2018-11-07T17:39:37.208Z,0.00
2018-11-07T17:40:37.101Z,0.00
2018-11-07T17:42:31.926Z,0.00
2018-11-07T17:43:32.360Z,0.00
2018-11-07T17:45:26.186Z,0.00
2018-11-07T17:46:25.590Z,0.00
2018-11-07T17:48:22.050Z,0.00
2018-11-07T17:49:21.344Z,0.00
2018-11-07T17:51:13.589Z,0.00
2018-11-07T17:52:13.190Z,0.00
2018-11-07T17:54:06.412Z,0.00
2018-11-07T17:55:06.355Z,0.00
2018-11-07T17:56:59.986Z,0.00
2018-11-07T17:57:59.804Z,0.00
2018-11-07T17:59:53.103Z,0.00
2018-11-07T18:00:53.070Z,0.00
2018-11-07T18:02:46.794Z,0.00
2018-11-07T18:03:46.473Z,0.00
2018-11-07T18:05:40.439Z,0.00
2018-11-07T18:06:40.380Z,0.00
2018-11-07T18:08:34.301Z,0.00
2018-11-07T18:09:33.567Z,0.00
2018-11-07T18:11:26.917Z,0.00
2018-11-07T18:12:26.601Z,0.00
2018-11-07T18:14:19.522Z,0.00
2018-11-07T18:15:21.264Z,0.00
2018-11-07T18:17:16.185Z,0.00
2018-11-07T18:19:30.118Z,0.00
2018-11-07T18:20:25.847Z,0.00
2018-11-07T18:22:18.597Z,0.00
2018-11-07T18:23:18.608Z,0.00
2018-11-07T18:25:11.965Z,0.00
2018-11-07T18:26:11.931Z,0.00
2018-11-07T18:28:05.076Z,0.00
2018-11-07T18:30:18.734Z,0.00
2018-11-07T18:32:32.068Z,0.00